Time;durP1;ratioP1;P1;durP2;ratioP2;P2;SDS_P1;SDS_P2;PMS_P1;PMS_P2;Temp;Humidity;BMP_temperature;BMP_pressure;BME280_temperature;BME280_humidity;BME280_pressure;Samples;Min_cycle;Max_cycle;Signal;HPM_P1;HPM_P2
2023/06/30 00:02:21;;;;;;;2.83;2.63;;;;;;;;;;5051892;28;20392;-50
2023/06/30 00:04:48;;;;;;;4.00;3.60;;;;;;;;;;5051892;28;20402;-51
2023/06/30 00:07:14;;;;;;;4.60;4.20;;;;;;;;;;5051713;28;20454;-50
2023/06/30 00:09:40;;;;;;;6.00;5.43;;;;;;;;;;5052008;28;20459;-50
2023/06/30 00:12:06;;;;;;;6.10;5.60;;;;;;;;;;5050830;28;20505;-50
2023/06/30 00:14:32;;;;;;;8.57;7.23;;;;;;;;;;5050626;28;21016;-50
2023/06/30 00:16:58;;;;;;;9.60;8.60;;;;;;;;;;5051702;28;20430;-49
2023/06/30 00:19:25;;;;;;;10.57;9.43;;;;;;;;;;5051660;28;20756;-49
2023/06/30 00:21:52;;;;;;;14.73;11.40;;;;;;;;;;5051454;28;20440;-50
2023/06/30 00:24:19;;;;;;;15.60;12.57;;;;;;;;;;5051550;28;20394;-50
2023/06/30 00:26:45;;;;;;;19.50;13.90;;;;;;;;;;5051686;28;20460;-50
2023/06/30 00:29:11;;;;;;;19.50;12.53;;;;;;;;;;5051624;28;20474;-51
2023/06/30 00:31:37;;;;;;;13.33;10.23;;;;;;;;;;5051435;28;20406;-50
2023/06/30 00:34:03;;;;;;;14.77;9.47;;;;;;;;;;5051626;28;20436;-48
2023/06/30 00:36:29;;;;;;;10.43;8.90;;;;;;;;;;5051332;28;20435;-48
2023/06/30 00:38:55;;;;;;;11.27;9.13;;;;;;;;;;5051489;28;20441;-48
2023/06/30 00:41:21;;;;;;;12.90;11.30;;;;;;;;;;5050350;28;20449;-47
2023/06/30 00:43:47;;;;;;;12.83;10.30;;;;;;;;;;5050765;28;20931;-50
2023/06/30 00:46:16;;;;;;;10.40;8.70;;;;;;;;;;5051323;28;20421;-50
2023/06/30 00:48:42;;;;;;;7.40;6.70;;;;;;;;;;5051364;28;20500;-48
2023/06/30 00:51:09;;;;;;;8.77;5.90;;;;;;;;;;5051232;28;20406;-49
2023/06/30 00:53:35;;;;;;;7.63;6.10;;;;;;;;;;5051282;28;20463;-50
2023/06/30 00:56:01;;;;;;;6.03;4.33;;;;;;;;;;5051182;28;20491;-50
2023/06/30 00:58:27;;;;;;;3.90;3.60;;;;;;;;;;5051251;28;20492;-50
2023/06/30 01:00:55;;;;;;;3.33;3.13;;;;;;;;;;5050643;28;20463;-50
2023/06/30 01:03:30;;;;;;;4.23;2.60;;;;;;;;;;5053473;28;20413;-49
2023/06/30 01:06:07;;;;;;;2.87;2.67;;;;;;;;;;5049012;28;20416;-48
2023/06/30 01:08:45;;;;;;;2.00;1.90;;;;;;;;;;5053626;28;20538;-49
2023/06/30 01:11:12;;;;;;;2.53;2.40;;;;;;;;;;5055015;28;20394;-48
2023/06/30 01:13:38;;;;;;;4.13;2.37;;;;;;;;;;5041248;28;20429;-45
2023/06/30 01:16:05;;;;;;;2.90;2.17;;;;;;;;;;5050437;28;20429;-45
2023/06/30 01:18:34;;;;;;;7.27;2.40;;;;;;;;;;5054892;28;20413;-44
2023/06/30 01:21:00;;;;;;;2.80;2.60;;;;;;;;;;5054721;28;20965;-44
2023/06/30 01:23:35;;;;;;;7.33;2.30;;;;;;;;;;5054845;28;20810;-48
2023/06/30 01:26:02;;;;;;;3.10;2.80;;;;;;;;;;5054857;28;20877;-45
2023/06/30 01:28:28;;;;;;;3.07;2.77;;;;;;;;;;5054868;28;20492;-44
2023/06/30 01:30:55;;;;;;;3.20;3.00;;;;;;;;;;5054577;28;21071;-44
2023/06/30 01:33:21;;;;;;;2.80;2.40;;;;;;;;;;5054822;28;20425;-48
2023/06/30 01:35:47;;;;;;;2.90;2.60;;;;;;;;;;5054617;28;20415;-45
2023/06/30 01:38:13;;;;;;;3.27;2.97;;;;;;;;;;5054501;28;20436;-48
2023/06/30 01:40:39;;;;;;;6.73;3.20;;;;;;;;;;5054475;28;20408;-47
2023/06/30 01:43:06;;;;;;;5.93;2.70;;;;;;;;;;5053437;28;20929;-44
2023/06/30 01:45:33;;;;;;;4.70;3.27;;;;;;;;;;5054332;28;20424;-44
2023/06/30 01:47:59;;;;;;;3.40;3.20;;;;;;;;;;5054443;28;21033;-45
2023/06/30 01:50:28;;;;;;;7.30;3.37;;;;;;;;;;5054247;28;20413;-44
2023/06/30 01:52:54;;;;;;;6.70;3.20;;;;;;;;;;5054480;28;20796;-44
2023/06/30 01:55:20;;;;;;;4.30;3.30;;;;;;;;;;5054217;28;20900;-45
2023/06/30 01:57:46;;;;;;;8.40;4.10;;;;;;;;;;5058466;28;20529;-45
2023/06/30 02:00:12;;;;;;;3.63;3.40;;;;;;;;;;5054050;28;20384;-50
2023/06/30 02:02:38;;;;;;;7.03;4.00;;;;;;;;;;5054022;28;20402;-49
2023/06/30 02:05:04;;;;;;;6.77;4.30;;;;;;;;;;5054043;28;20409;-50
2023/06/30 02:07:30;;;;;;;5.63;3.73;;;;;;;;;;5053884;28;20476;-49
2023/06/30 02:09:56;;;;;;;4.60;3.73;;;;;;;;;;5053836;28;20913;-49
2023/06/30 02:12:22;;;;;;;6.07;4.10;;;;;;;;;;5054105;28;20381;-48
2023/06/30 02:14:48;;;;;;;4.70;4.40;;;;;;;;;;5051869;28;20523;-50
2023/06/30 02:17:14;;;;;;;6.20;4.10;;;;;;;;;;5053884;28;20467;-49
2023/06/30 02:19:39;;;;;;;6.10;4.40;;;;;;;;;;5053771;28;20390;-48
2023/06/30 02:22:05;;;;;;;6.40;5.80;;;;;;;;;;5053875;28;20446;-49
2023/06/30 02:24:31;;;;;;;7.23;4.80;;;;;;;;;;5053668;28;20424;-45
2023/06/30 02:26:58;;;;;;;10.03;5.90;;;;;;;;;;5053669;28;20406;-44
2023/06/30 02:29:23;;;;;;;7.50;5.87;;;;;;;;;;5053674;28;20449;-45
2023/06/30 02:31:49;;;;;;;7.03;6.40;;;;;;;;;;5053584;28;20903;-46
2023/06/30 02:34:15;;;;;;;10.30;5.70;;;;;;;;;;5053528;28;20545;-47
2023/06/30 02:36:41;;;;;;;7.07;6.47;;;;;;;;;;5053461;28;20472;-44
2023/06/30 02:39:07;;;;;;;8.07;6.57;;;;;;;;;;5053586;28;20419;-44
2023/06/30 02:41:33;;;;;;;13.07;7.10;;;;;;;;;;5053127;28;20443;-45
2023/06/30 02:43:59;;;;;;;8.30;7.50;;;;;;;;;;5052544;28;20900;-44
2023/06/30 02:46:25;;;;;;;10.23;8.27;;;;;;;;;;5053367;28;20436;-44
2023/06/30 02:48:51;;;;;;;10.90;9.00;;;;;;;;;;5053286;28;20516;-44
2023/06/30 02:51:17;;;;;;;11.97;8.23;;;;;;;;;;5053054;28;20420;-46
2023/06/30 02:53:43;;;;;;;15.20;8.67;;;;;;;;;;5053311;28;20386;-47
2023/06/30 02:56:09;;;;;;;9.47;8.67;;;;;;;;;;5053113;28;20436;-45
2023/06/30 02:58:36;;;;;;;10.33;8.00;;;;;;;;;;5043271;28;20391;-48
2023/06/30 03:01:05;;;;;;;17.77;10.70;;;;;;;;;;5052897;28;20412;-45
2023/06/30 03:03:31;;;;;;;9.13;8.20;;;;;;;;;;5052236;28;20476;-44
2023/06/30 03:05:57;;;;;;;9.63;7.60;;;;;;;;;;5052839;28;20483;-48
2023/06/30 03:08:23;;;;;;;9.80;7.60;;;;;;;;;;5043560;28;20989;-50
2023/06/30 03:10:49;;;;;;;12.03;8.60;;;;;;;;;;5052649;28;20380;-50
2023/06/30 03:13:15;;;;;;;11.00;8.53;;;;;;;;;;5051765;28;20769;-48
2023/06/30 03:15:41;;;;;;;10.00;7.37;;;;;;;;;;5052752;28;20825;-50
2023/06/30 03:18:07;;;;;;;8.73;7.47;;;;;;;;;;5052755;28;20402;-48
2023/06/30 03:20:33;;;;;;;14.93;7.83;;;;;;;;;;5052894;28;20499;-50
2023/06/30 03:22:59;;;;;;;12.37;7.20;;;;;;;;;;5052780;28;20444;-50
2023/06/30 03:25:25;;;;;;;8.73;6.60;;;;;;;;;;5051691;28;20418;-49
2023/06/30 03:27:51;;;;;;;7.43;6.70;;;;;;;;;;5052529;28;20920;-49
2023/06/30 03:30:17;;;;;;;8.80;6.53;;;;;;;;;;5052416;28;20428;-50
2023/06/30 03:32:43;;;;;;;6.77;6.07;;;;;;;;;;5050184;28;20419;-49
2023/06/30 03:35:09;;;;;;;7.90;6.30;;;;;;;;;;5036738;28;20787;-50
2023/06/30 03:37:35;;;;;;;6.37;5.77;;;;;;;;;;5052387;28;20402;-47
2023/06/30 03:40:03;;;;;;;10.50;6.47;;;;;;;;;;5037730;28;20391;-50
2023/06/30 03:42:29;;;;;;;9.93;5.50;;;;;;;;;;5052154;28;20511;-50
2023/06/30 03:44:55;;;;;;;7.00;5.70;;;;;;;;;;5052223;28;20444;-49
2023/06/30 03:47:21;;;;;;;7.53;5.47;;;;;;;;;;5052274;28;20440;-48
2023/06/30 03:49:47;;;;;;;6.97;5.27;;;;;;;;;;5051918;28;20493;-48
2023/06/30 03:52:13;;;;;;;10.20;5.20;;;;;;;;;;5052018;28;20916;-50
2023/06/30 03:54:39;;;;;;;6.60;5.73;;;;;;;;;;5051975;28;20386;-50
2023/06/30 03:57:05;;;;;;;8.60;5.60;;;;;;;;;;5052058;28;20399;-50
2023/06/30 03:59:31;;;;;;;8.13;4.90;;;;;;;;;;5052151;28;20384;-49
2023/06/30 04:01:57;;;;;;;7.40;5.30;;;;;;;;;;5052011;28;21098;-50
2023/06/30 04:04:23;;;;;;;7.77;5.40;;;;;;;;;;5051981;28;20417;-49
2023/06/30 04:06:50;;;;;;;16.50;7.40;;;;;;;;;;5051771;28;20792;-48
2023/06/30 04:09:16;;;;;;;6.37;5.63;;;;;;;;;;5051905;28;20872;-49
2023/06/30 04:11:42;;;;;;;5.13;4.60;;;;;;;;;;5051669;28;20443;-50
2023/06/30 04:14:08;;;;;;;7.90;4.73;;;;;;;;;;5050739;28;20755;-48
2023/06/30 04:16:34;;;;;;;7.67;4.80;;;;;;;;;;5051623;28;20761;-50
2023/06/30 04:19:00;;;;;;;6.60;4.83;;;;;;;;;;5052008;28;20375;-50
2023/06/30 04:21:26;;;;;;;6.03;4.87;;;;;;;;;;5051578;28;20978;-50
2023/06/30 04:23:52;;;;;;;6.10;4.43;;;;;;;;;;5051629;28;20384;-49
2023/06/30 04:26:18;;;;;;;4.80;4.40;;;;;;;;;;5052142;28;20445;-48
2023/06/30 04:28:47;;;;;;;5.53;5.03;;;;;;;;;;5059009;28;20520;-50
2023/06/30 04:31:13;;;;;;;5.27;4.20;;;;;;;;;;5051318;28;20417;-49
2023/06/30 04:33:39;;;;;;;8.67;5.63;;;;;;;;;;5051354;28;20436;-48
2023/06/30 04:36:07;;;;;;;7.50;4.23;;;;;;;;;;5051215;28;20387;-48
2023/06/30 04:38:33;;;;;;;6.10;4.97;;;;;;;;;;5051544;28;20401;-47
2023/06/30 04:40:59;;;;;;;7.17;5.67;;;;;;;;;;5051356;28;20393;-48
2023/06/30 04:43:25;;;;;;;6.53;5.00;;;;;;;;;;5050503;28;20493;-49
2023/06/30 04:45:51;;;;;;;5.10;4.70;;;;;;;;;;5051527;28;20415;-50
2023/06/30 04:48:17;;;;;;;6.60;4.40;;;;;;;;;;5051297;28;20461;-50
2023/06/30 04:50:43;;;;;;;13.80;5.37;;;;;;;;;;5051178;28;20460;-50
2023/06/30 04:53:09;;;;;;;10.00;5.00;;;;;;;;;;5051417;28;20384;-50
2023/06/30 04:55:35;;;;;;;9.90;5.77;;;;;;;;;;5051306;28;20921;-50
2023/06/30 04:58:01;;;;;;;5.40;4.93;;;;;;;;;;5051401;28;20513;-50
2023/06/30 05:00:27;;;;;;;4.90;4.50;;;;;;;;;;5051201;28;20389;-48
2023/06/30 05:02:53;;;;;;;5.00;4.50;;;;;;;;;;5051315;28;20414;-49
2023/06/30 05:05:19;;;;;;;8.13;4.87;;;;;;;;;;5051125;28;20868;-50
2023/06/30 05:07:48;;;;;;;13.13;5.40;;;;;;;;;;5051110;28;20474;-49
2023/06/30 05:10:15;;;;;;;10.30;5.43;;;;;;;;;;5050123;28;21090;-50
2023/06/30 05:12:41;;;;;;;8.07;5.20;;;;;;;;;;5051192;28;20478;-50
2023/06/30 05:15:07;;;;;;;11.50;4.93;;;;;;;;;;5051113;28;20456;-50
2023/06/30 05:17:33;;;;;;;8.80;5.37;;;;;;;;;;5051120;28;20432;-50
2023/06/30 05:20:04;;;;;;;10.20;5.43;;;;;;;;;;5050763;28;20422;-50
2023/06/30 05:22:30;;;;;;;9.20;5.20;;;;;;;;;;5051153;28;20463;-49
2023/06/30 05:24:56;;;;;;;7.13;5.20;;;;;;;;;;5051011;28;20386;-48
2023/06/30 05:27:22;;;;;;;12.40;5.47;;;;;;;;;;5050958;28;20467;-47
2023/06/30 05:29:48;;;;;;;7.70;4.40;;;;;;;;;;5050652;28;20442;-49
2023/06/30 05:32:14;;;;;;;8.17;4.60;;;;;;;;;;5050755;28;20460;-50
2023/06/30 05:34:42;;;;;;;5.70;4.20;;;;;;;;;;5050849;28;20401;-50
2023/06/30 05:37:08;;;;;;;8.70;3.97;;;;;;;;;;5050980;28;20409;-50
2023/06/30 05:39:35;;;;;;;7.87;4.53;;;;;;;;;;5050148;28;21974;-50
2023/06/30 05:42:01;;;;;;;7.33;4.30;;;;;;;;;;5050833;28;20412;-50
2023/06/30 05:44:27;;;;;;;6.93;4.83;;;;;;;;;;5050893;28;20419;-49
2023/06/30 05:46:53;;;;;;;7.10;4.10;;;;;;;;;;5050776;28;20780;-51
2023/06/30 05:49:19;;;;;;;6.57;4.10;;;;;;;;;;5053019;28;20468;-50
2023/06/30 05:51:45;;;;;;;4.93;4.17;;;;;;;;;;5054274;28;20437;-49
2023/06/30 05:54:12;;;;;;;5.93;5.00;;;;;;;;;;5050741;28;20389;-50
2023/06/30 05:56:38;;;;;;;15.30;4.70;;;;;;;;;;5051439;28;20434;-50
2023/06/30 05:59:04;;;;;;;6.20;4.33;;;;;;;;;;5053845;28;20425;-49
2023/06/30 06:01:30;;;;;;;11.20;4.63;;;;;;;;;;5053497;28;20826;-49
2023/06/30 06:03:56;;;;;;;7.13;4.80;;;;;;;;;;5053605;28;20515;-50
2023/06/30 06:06:22;;;;;;;4.73;4.17;;;;;;;;;;5053503;28;20425;-50
2023/06/30 06:08:48;;;;;;;7.77;3.90;;;;;;;;;;5054190;28;20422;-49
2023/06/30 06:11:15;;;;;;;11.27;4.67;;;;;;;;;;5053005;28;20992;-50
2023/06/30 06:13:41;;;;;;;6.73;4.10;;;;;;;;;;5054162;28;20785;-49
2023/06/30 06:16:07;;;;;;;5.43;3.53;;;;;;;;;;5053957;28;20386;-49
2023/06/30 06:18:34;;;;;;;4.23;3.27;;;;;;;;;;5053916;28;20387;-51
2023/06/30 06:21:01;;;;;;;3.80;3.40;;;;;;;;;;5053872;28;20474;-50
2023/06/30 06:23:27;;;;;;;6.83;3.67;;;;;;;;;;5055054;28;20431;-50
2023/06/30 06:25:53;;;;;;;3.77;3.43;;;;;;;;;;5053812;28;20931;-49
2023/06/30 06:28:19;;;;;;;4.60;2.87;;;;;;;;;;5053449;28;20459;-48
2023/06/30 06:30:45;;;;;;;4.00;2.53;;;;;;;;;;5053521;28;20400;-48
2023/06/30 06:33:11;;;;;;;3.70;2.43;;;;;;;;;;5053585;28;20414;-48
2023/06/30 06:35:37;;;;;;;5.10;2.80;;;;;;;;;;5053495;28;20409;-50
2023/06/30 06:38:03;;;;;;;4.17;2.60;;;;;;;;;;5053414;28;20457;-49
2023/06/30 06:40:29;;;;;;;3.80;2.90;;;;;;;;;;5051099;28;20435;-49
2023/06/30 06:42:55;;;;;;;3.33;2.57;;;;;;;;;;5051591;28;20541;-49
2023/06/30 06:45:22;;;;;;;4.90;2.60;;;;;;;;;;5051277;28;20398;-50
2023/06/30 06:48:06;;;;;;;4.20;2.93;;;;;;;;;;5052746;28;20431;-49
2023/06/30 06:50:32;;;;;;;7.07;3.33;;;;;;;;;;5052155;28;20387;-50
2023/06/30 06:52:58;;;;;;;4.40;2.60;;;;;;;;;;5053240;28;20390;-50
2023/06/30 06:55:24;;;;;;;7.27;2.53;;;;;;;;;;5051985;28;20500;-50
2023/06/30 06:57:50;;;;;;;3.27;2.50;;;;;;;;;;5053286;28;20404;-47
2023/06/30 07:00:17;;;;;;;2.67;2.47;;;;;;;;;;5052816;28;20416;-50
2023/06/30 07:02:43;;;;;;;4.20;2.90;;;;;;;;;;5053233;28;20414;-50
2023/06/30 07:05:10;;;;;;;3.20;3.00;;;;;;;;;;5053098;28;20478;-50
2023/06/30 07:07:35;;;;;;;5.30;2.50;;;;;;;;;;5052891;28;20502;-50
2023/06/30 07:10:02;;;;;;;3.03;2.73;;;;;;;;;;5051964;28;20450;-51
2023/06/30 07:12:28;;;;;;;4.67;2.70;;;;;;;;;;5052791;28;20883;-49
2023/06/30 07:14:54;;;;;;;2.77;2.57;;;;;;;;;;5052725;28;20416;-50
2023/06/30 07:17:20;;;;;;;6.33;2.27;;;;;;;;;;5052838;28;20824;-50
2023/06/30 07:19:46;;;;;;;2.90;2.43;;;;;;;;;;5035582;28;20417;-49
2023/06/30 07:22:11;;;;;;;4.70;2.50;;;;;;;;;;5049377;28;20529;-50
2023/06/30 07:24:37;;;;;;;2.50;2.00;;;;;;;;;;5052575;28;20752;-48
2023/06/30 07:27:03;;;;;;;3.77;2.57;;;;;;;;;;5052406;28;20415;-49
2023/06/30 07:29:29;;;;;;;4.80;3.00;;;;;;;;;;5052478;28;20464;-49
2023/06/30 07:31:55;;;;;;;5.10;3.10;;;;;;;;;;5052341;28;20422;-48
2023/06/30 07:34:23;;;;;;;2.80;2.10;;;;;;;;;;5052323;28;20389;-49
2023/06/30 07:36:49;;;;;;;2.23;2.13;;;;;;;;;;5052607;28;20413;-47
2023/06/30 07:39:15;;;;;;;2.77;2.40;;;;;;;;;;5052444;28;20794;-48
2023/06/30 07:41:41;;;;;;;3.80;2.63;;;;;;;;;;5051147;28;20511;-50
2023/06/30 07:44:09;;;;;;;5.17;2.80;;;;;;;;;;5052445;28;20405;-50
2023/06/30 07:46:35;;;;;;;5.43;3.00;;;;;;;;;;5052240;28;20437;-48
2023/06/30 07:49:01;;;;;;;3.10;2.63;;;;;;;;;;5052268;28;20512;-48
2023/06/30 07:51:27;;;;;;;2.97;2.73;;;;;;;;;;5052044;28;20487;-50
2023/06/30 07:53:53;;;;;;;11.97;3.27;;;;;;;;;;5052246;28;20381;-49
2023/06/30 07:56:19;;;;;;;5.13;3.23;;;;;;;;;;5051956;28;20502;-50
2023/06/30 07:58:45;;;;;;;4.70;3.33;;;;;;;;;;5052145;28;20384;-50
2023/06/30 08:01:11;;;;;;;6.90;3.13;;;;;;;;;;5051846;28;20417;-50
2023/06/30 08:03:37;;;;;;;3.53;2.93;;;;;;;;;;5052017;28;20401;-50
2023/06/30 08:06:03;;;;;;;9.40;3.03;;;;;;;;;;5051924;28;20836;-49
2023/06/30 08:08:30;;;;;;;9.43;2.70;;;;;;;;;;5051923;28;20457;-50
2023/06/30 08:10:56;;;;;;;5.30;3.10;;;;;;;;;;5050312;28;20434;-50
2023/06/30 08:13:22;;;;;;;4.97;2.47;;;;;;;;;;5051823;28;20393;-50
2023/06/30 08:15:48;;;;;;;6.50;2.67;;;;;;;;;;5051790;28;20498;-50
2023/06/30 08:18:14;;;;;;;6.63;3.00;;;;;;;;;;5045997;28;20430;-48
2023/06/30 08:20:40;;;;;;;4.00;2.47;;;;;;;;;;5058244;28;20479;-49
2023/06/30 08:23:06;;;;;;;4.07;3.00;;;;;;;;;;5051626;28;20419;-49
2023/06/30 08:25:32;;;;;;;3.40;2.63;;;;;;;;;;5051520;28;20418;-49
2023/06/30 08:27:58;;;;;;;2.80;2.37;;;;;;;;;;5051834;28;20942;-48
2023/06/30 08:30:24;;;;;;;3.20;2.20;;;;;;;;;;5051505;28;20456;-50
2023/06/30 08:32:50;;;;;;;2.63;2.43;;;;;;;;;;5051738;28;20402;-50
2023/06/30 08:35:16;;;;;;;3.17;2.20;;;;;;;;;;5057989;28;20417;-50
2023/06/30 08:37:42;;;;;;;2.57;2.33;;;;;;;;;;5051402;28;20465;-50
2023/06/30 08:40:09;;;;;;;4.33;2.53;;;;;;;;;;5050436;28;20436;-50
2023/06/30 08:42:36;;;;;;;2.80;2.30;;;;;;;;;;5051516;28;20456;-49
2023/06/30 08:45:03;;;;;;;5.47;2.50;;;;;;;;;;5051667;28;20500;-50
2023/06/30 08:47:32;;;;;;;2.50;2.30;;;;;;;;;;5051410;28;21147;-50
2023/06/30 08:49:58;;;;;;;3.07;2.87;;;;;;;;;;5051246;28;20457;-50
2023/06/30 08:52:24;;;;;;;3.00;2.80;;;;;;;;;;5051410;28;20496;-50
2023/06/30 08:54:50;;;;;;;3.70;2.50;;;;;;;;;;5051205;28;20496;-50
2023/06/30 08:57:17;;;;;;;4.73;2.77;;;;;;;;;;5051082;28;20496;-50
2023/06/30 08:59:44;;;;;;;6.70;3.47;;;;;;;;;;5051238;28;20409;-49
2023/06/30 09:02:11;;;;;;;6.27;3.60;;;;;;;;;;5051409;28;20499;-50
2023/06/30 09:04:37;;;;;;;6.13;3.37;;;;;;;;;;5051205;28;20913;-49
2023/06/30 09:07:06;;;;;;;6.00;3.63;;;;;;;;;;5051012;28;20934;-50
2023/06/30 09:09:36;;;;;;;4.63;3.43;;;;;;;;;;5051278;28;20514;-50
2023/06/30 09:12:02;;;;;;;7.90;4.03;;;;;;;;;;5049418;28;20475;-49
2023/06/30 09:14:33;;;;;;;6.47;3.63;;;;;;;;;;5050275;28;20452;-49
2023/06/30 09:17:00;;;;;;;4.20;2.87;;;;;;;;;;5050682;28;20425;-49
2023/06/30 09:19:26;;;;;;;4.00;2.83;;;;;;;;;;5050331;28;20405;-49
2023/06/30 09:21:53;;;;;;;2.70;1.90;;;;;;;;;;5051465;28;20428;-45
2023/06/30 09:24:19;;;;;;;2.63;2.20;;;;;;;;;;5052151;28;20412;-45
2023/06/30 09:26:45;;;;;;;3.70;1.77;;;;;;;;;;5053498;28;20432;-46
2023/06/30 09:29:12;;;;;;;6.70;2.00;;;;;;;;;;5054343;28;20551;-45
2023/06/30 09:31:39;;;;;;;1.73;1.50;;;;;;;;;;5045756;28;20437;-48
2023/06/30 09:34:08;;;;;;;5.83;1.83;;;;;;;;;;5052491;28;20443;-45
2023/06/30 09:36:37;;;;;;;9.80;1.97;;;;;;;;;;5054639;28;20431;-45
2023/06/30 09:39:05;;;;;;;4.20;1.90;;;;;;;;;;5054747;28;20774;-47
2023/06/30 09:41:31;;;;;;;5.13;2.17;;;;;;;;;;5054423;28;20470;-46
2023/06/30 09:43:58;;;;;;;7.33;2.53;;;;;;;;;;5054616;28;20409;-47
2023/06/30 09:46:24;;;;;;;10.00;2.30;;;;;;;;;;5054611;28;20461;-44
2023/06/30 09:48:54;;;;;;;6.50;2.07;;;;;;;;;;5054418;28;20452;-45
2023/06/30 09:51:23;;;;;;;5.47;1.90;;;;;;;;;;5054288;28;20413;-48
2023/06/30 09:53:52;;;;;;;3.83;2.00;;;;;;;;;;5054364;28;20405;-45
2023/06/30 09:56:21;;;;;;;3.30;1.70;;;;;;;;;;5054291;28;20409;-49
2023/06/30 09:58:47;;;;;;;3.90;1.60;;;;;;;;;;5054385;28;20432;-44
2023/06/30 10:01:18;;;;;;;3.53;1.77;;;;;;;;;;5053945;28;20405;-45
2023/06/30 10:03:48;;;;;;;3.93;1.67;;;;;;;;;;5053549;28;20428;-44
2023/06/30 10:06:15;;;;;;;3.73;1.50;;;;;;;;;;5054046;28;20441;-44
2023/06/30 10:08:41;;;;;;;2.90;1.50;;;;;;;;;;5054172;28;20491;-47
2023/06/30 10:11:08;;;;;;;2.37;1.70;;;;;;;;;;5053922;28;20417;-50
2023/06/30 10:13:35;;;;;;;3.50;1.60;;;;;;;;;;5048109;28;20409;-45
2023/06/30 10:16:01;;;;;;;1.67;1.57;;;;;;;;;;5040994;28;20425;-45
2023/06/30 10:18:28;;;;;;;3.20;1.47;;;;;;;;;;5054126;28;20448;-45
2023/06/30 10:20:54;;;;;;;3.03;1.97;;;;;;;;;;5053888;28;20416;-44
2023/06/30 10:23:21;;;;;;;4.77;1.90;;;;;;;;;;5053961;28;20405;-45
2023/06/30 10:25:47;;;;;;;5.07;1.77;;;;;;;;;;5053892;28;20413;-45
2023/06/30 10:28:14;;;;;;;2.43;1.50;;;;;;;;;;5053641;28;20440;-45
2023/06/30 10:30:40;;;;;;;3.80;1.73;;;;;;;;;;5053560;28;20419;-45
2023/06/30 10:33:06;;;;;;;1.70;1.60;;;;;;;;;;5053971;28;20475;-45
2023/06/30 10:35:32;;;;;;;3.13;1.90;;;;;;;;;;5052115;28;20425;-45
2023/06/30 10:37:58;;;;;;;1.90;1.70;;;;;;;;;;5053588;28;20447;-45
2023/06/30 10:40:25;;;;;;;2.37;2.17;;;;;;;;;;5053439;28;20455;-44
2023/06/30 10:42:52;;;;;;;3.93;1.77;;;;;;;;;;5053664;28;20393;-44
2023/06/30 10:45:19;;;;;;;2.37;1.50;;;;;;;;;;5053596;28;20412;-49
2023/06/30 10:47:49;;;;;;;4.37;1.77;;;;;;;;;;5053480;28;20425;-44
2023/06/30 10:50:15;;;;;;;3.73;1.80;;;;;;;;;;5053325;28;20463;-50
2023/06/30 10:52:49;;;;;;;4.20;1.83;;;;;;;;;;5053562;28;20413;-50
2023/06/30 10:55:15;;;;;;;1.60;1.50;;;;;;;;;;5053184;28;20412;-49
2023/06/30 10:57:41;;;;;;;24.17;2.87;;;;;;;;;;5053177;28;20708;-49
2023/06/30 11:00:11;;;;;;;3.20;1.70;;;;;;;;;;5053370;28;20937;-50
2023/06/30 11:02:49;;;;;;;1.83;1.60;;;;;;;;;;5053487;28;20413;-50
2023/06/30 11:05:21;;;;;;;1.83;1.60;;;;;;;;;;5033308;28;20441;-50
2023/06/30 11:07:49;;;;;;;2.00;1.70;;;;;;;;;;5051129;28;20486;-50
2023/06/30 11:10:34;;;;;;;4.73;1.63;;;;;;;;;;5052706;28;20461;-50
2023/06/30 11:13:01;;;;;;;3.80;2.10;;;;;;;;;;5053023;28;20873;-49
2023/06/30 11:15:28;;;;;;;56.47;4.13;;;;;;;;;;5052826;28;20495;-50
2023/06/30 11:17:54;;;;;;;2.90;2.23;;;;;;;;;;5052940;28;20429;-48
2023/06/30 11:20:27;;;;;;;1.97;1.63;;;;;;;;;;5040705;28;20923;-50
2023/06/30 11:23:00;;;;;;;3.23;1.60;;;;;;;;;;5052866;28;20405;-50
2023/06/30 11:25:27;;;;;;;1.90;1.73;;;;;;;;;;5052796;28;21019;-50
2023/06/30 11:27:53;;;;;;;3.33;1.50;;;;;;;;;;5052724;28;20779;-50
2023/06/30 11:30:20;;;;;;;3.50;1.93;;;;;;;;;;5052518;28;20955;-50
2023/06/30 11:32:46;;;;;;;4.50;1.63;;;;;;;;;;5052717;28;20420;-48
2023/06/30 11:35:13;;;;;;;4.03;1.90;;;;;;;;;;5051347;28;20433;-48
2023/06/30 11:37:39;;;;;;;2.00;1.90;;;;;;;;;;5052494;28;20436;-50
2023/06/30 11:40:07;;;;;;;1.73;1.60;;;;;;;;;;5052263;28;20516;-50
2023/06/30 11:42:36;;;;;;;3.80;1.90;;;;;;;;;;5052461;28;20421;-50
2023/06/30 11:45:04;;;;;;;2.00;1.73;;;;;;;;;;5052472;28;20408;-44
2023/06/30 11:47:30;;;;;;;3.20;1.70;;;;;;;;;;5050628;28;20983;-50
2023/06/30 11:49:56;;;;;;;2.57;1.70;;;;;;;;;;5056629;28;20467;-45
2023/06/30 11:52:22;;;;;;;2.70;1.90;;;;;;;;;;5056976;28;20779;-44
2023/06/30 11:54:48;;;;;;;2.50;1.77;;;;;;;;;;5035639;28;20469;-44
2023/06/30 11:57:14;;;;;;;2.83;2.10;;;;;;;;;;5052245;28;20836;-45
2023/06/30 11:59:41;;;;;;;1.83;1.73;;;;;;;;;;5052089;28;20916;-45
2023/06/30 12:02:07;;;;;;;3.00;1.90;;;;;;;;;;5052100;28;20423;-44
2023/06/30 12:04:34;;;;;;;2.03;1.67;;;;;;;;;;5050994;28;20503;-45
2023/06/30 12:07:05;;;;;;;3.37;2.10;;;;;;;;;;5051959;28;21067;-47
2023/06/30 12:09:31;;;;;;;3.10;1.97;;;;;;;;;;5051938;28;20467;-45
2023/06/30 12:11:58;;;;;;;2.77;2.00;;;;;;;;;;5051991;28;20426;-46
2023/06/30 12:14:25;;;;;;;2.87;1.53;;;;;;;;;;5051762;28;20471;-45
2023/06/30 12:16:52;;;;;;;2.73;2.00;;;;;;;;;;5051824;28;20441;-46
2023/06/30 12:19:22;;;;;;;3.00;1.77;;;;;;;;;;5049855;28;20413;-44
2023/06/30 12:22:06;;;;;;;2.70;1.90;;;;;;;;;;5051609;28;20475;-44
2023/06/30 12:24:33;;;;;;;2.07;1.87;;;;;;;;;;5051844;28;20420;-45
2023/06/30 12:27:02;;;;;;;4.10;2.00;;;;;;;;;;5051651;28;20460;-44
2023/06/30 12:29:30;;;;;;;2.80;2.23;;;;;;;;;;5051614;28;20450;-45
2023/06/30 12:31:56;;;;;;;3.83;1.83;;;;;;;;;;5051587;28;20403;-47
2023/06/30 12:34:32;;;;;;;2.40;1.70;;;;;;;;;;5050380;28;20432;-48
2023/06/30 12:36:58;;;;;;;2.60;1.67;;;;;;;;;;5051529;28;20533;-44
2023/06/30 12:39:24;;;;;;;4.40;1.97;;;;;;;;;;5051435;28;20914;-45
2023/06/30 12:41:50;;;;;;;1.80;1.70;;;;;;;;;;5051376;28;20423;-44
2023/06/30 12:44:16;;;;;;;2.80;1.90;;;;;;;;;;5049950;28;20431;-47
2023/06/30 12:46:42;;;;;;;3.53;1.83;;;;;;;;;;5033437;28;20440;-45
2023/06/30 12:49:08;;;;;;;2.23;1.60;;;;;;;;;;5051596;28;20532;-45
2023/06/30 12:51:35;;;;;;;4.30;1.90;;;;;;;;;;5051279;28;20413;-45
2023/06/30 12:54:01;;;;;;;1.63;1.53;;;;;;;;;;5051407;28;20416;-45
2023/06/30 12:56:27;;;;;;;2.07;1.67;;;;;;;;;;5051313;28;20437;-44
2023/06/30 12:58:53;;;;;;;1.83;1.67;;;;;;;;;;5055124;28;20433;-45
2023/06/30 13:01:19;;;;;;;3.03;1.73;;;;;;;;;;5055378;28;20413;-45
2023/06/30 13:03:46;;;;;;;4.63;2.00;;;;;;;;;;5054545;28;20493;-45
2023/06/30 13:06:12;;;;;;;4.03;2.03;;;;;;;;;;5055218;28;20421;-51
2023/06/30 13:08:38;;;;;;;3.23;2.50;;;;;;;;;;5055449;28;20969;-45
2023/06/30 13:11:05;;;;;;;3.57;1.93;;;;;;;;;;5055204;28;20420;-45
2023/06/30 13:13:31;;;;;;;10.20;2.07;;;;;;;;;;5055382;28;20412;-44
2023/06/30 13:15:57;;;;;;;2.60;1.47;;;;;;;;;;5055186;28;20767;-45
2023/06/30 13:18:23;;;;;;;1.63;1.53;;;;;;;;;;5054121;28;20459;-45
2023/06/30 13:20:49;;;;;;;3.80;1.90;;;;;;;;;;5055023;28;20847;-44
2023/06/30 13:23:15;;;;;;;2.83;1.60;;;;;;;;;;5055357;28;20827;-45
2023/06/30 13:25:41;;;;;;;4.17;1.87;;;;;;;;;;5054967;28;20406;-46
2023/06/30 13:28:07;;;;;;;9.13;2.30;;;;;;;;;;5055069;28;20821;-47
2023/06/30 13:30:33;;;;;;;4.57;2.10;;;;;;;;;;5054730;28;20445;-49
2023/06/30 13:32:58;;;;;;;5.13;1.90;;;;;;;;;;5054994;28;20428;-44
2023/06/30 13:35:24;;;;;;;6.37;1.67;;;;;;;;;;5053637;28;20425;-45
2023/06/30 13:37:51;;;;;;;4.63;2.17;;;;;;;;;;5054689;28;20992;-45
2023/06/30 13:40:17;;;;;;;3.60;2.10;;;;;;;;;;5054498;28;20423;-45
2023/06/30 13:42:43;;;;;;;1.80;1.70;;;;;;;;;;5054574;28;20413;-45
2023/06/30 13:45:09;;;;;;;3.47;1.73;;;;;;;;;;5054642;28;20481;-45
2023/06/30 13:47:35;;;;;;;2.37;1.80;;;;;;;;;;5054522;28;20440;-45
2023/06/30 13:50:01;;;;;;;2.70;1.60;;;;;;;;;;5053309;28;20464;-45
2023/06/30 13:52:27;;;;;;;2.93;2.20;;;;;;;;;;5054558;28;20766;-44
2023/06/30 13:54:53;;;;;;;2.47;1.90;;;;;;;;;;5054435;28;20921;-45
2023/06/30 13:57:19;;;;;;;2.30;2.10;;;;;;;;;;5054482;28;20941;-49
2023/06/30 13:59:45;;;;;;;2.20;2.00;;;;;;;;;;5054205;28;21002;-44
2023/06/30 14:02:11;;;;;;;2.63;1.67;;;;;;;;;;5054434;28;20408;-44
2023/06/30 14:04:37;;;;;;;4.30;2.47;;;;;;;;;;5052544;28;20433;-45
2023/06/30 14:07:04;;;;;;;4.20;1.90;;;;;;;;;;5054036;28;20453;-45
2023/06/30 14:09:30;;;;;;;11.53;2.83;;;;;;;;;;5053511;28;20467;-47
2023/06/30 14:11:56;;;;;;;2.60;1.80;;;;;;;;;;5053839;28;20405;-47
2023/06/30 14:14:22;;;;;;;5.40;1.70;;;;;;;;;;5054109;28;20509;-44
2023/06/30 14:16:48;;;;;;;3.57;1.70;;;;;;;;;;5054209;28;20473;-46
2023/06/30 14:19:14;;;;;;;5.23;1.80;;;;;;;;;;5054027;28;20496;-47
2023/06/30 14:21:41;;;;;;;3.93;1.77;;;;;;;;;;5053640;28;20509;-46
2023/06/30 14:24:08;;;;;;;2.00;1.70;;;;;;;;;;5054045;28;20914;-49
2023/06/30 14:26:34;;;;;;;4.20;2.03;;;;;;;;;;5054009;28;20779;-46
2023/06/30 14:29:00;;;;;;;4.60;1.83;;;;;;;;;;5053895;28;21030;-46
2023/06/30 14:31:26;;;;;;;4.60;2.17;;;;;;;;;;5046375;28;20418;-47
2023/06/30 14:33:52;;;;;;;3.57;2.30;;;;;;;;;;5053593;28;20413;-48
2023/06/30 14:36:18;;;;;;;3.67;2.13;;;;;;;;;;5052461;28;20429;-47
2023/06/30 14:38:44;;;;;;;2.20;2.10;;;;;;;;;;5053773;28;21092;-44